Terminal Aerodrome Forecast
Issued by NWS Louisville, KY

Home | Current Version | Previous Version | Text Only | Print | Product List | Glossary On
Versions: 1 2 3 4 5 6 7 8 9 10 11 12 13 14 15 16 17 18
436
FTUS43 KLMK 261728
TAFLEX
TAF
KLEX 261728Z 2618/2718 22013G20KT P6SM VCSH SCT010 BKN021
     FM262300 21011KT P6SM -SHRA VCTS BKN025CB
     FM270300 20005KT P6SM BKN035
     FM270700 17004KT 5SM BR FEW025 SCT250
     FM271300 17008KT P6SM SCT035 BKN150=

USA.gov is the U.S. government's official web portal to all federal, state and local government web resources and services.